Dixboro, Michigan
Current Conditions -  °F | °C
As of 8:59 PM on Thursday 18 Dec 2014 (Local Time) from KARB Reporting Station
Haze Haze  
Wind Chill: 22°   Ceiling: 800
Heat Index: 30°   Visibility: 5mi
Dew Point: 29°   Wind: 8mph
Humidity: 96%   Direction: 280°W
Pressure: 30.17"   Gusts: NA
Location:  42.3281°N, 83.7037°W
Report Text: KARB 190159Z AUTO 28007KT 5SM BR BKN008 OVC016 M01/M02 A3017 RMK AO2 CIG 006V011 I1000 T10111017
Loading
Personal Weather Stations






























Interactive Weather Map New forecast layout! Learn more

10-Day Weather Forecast

Advertisements
Track Severe Weather on mobile